createdAt,value
2018-07-07T00:02:06.695Z,93.90
2018-07-07T00:04:35.215Z,93.80
2018-07-07T00:07:05.438Z,93.60
2018-07-07T00:09:38.072Z,94.00
2018-07-07T00:14:36.102Z,94.00
2018-07-07T00:17:04.948Z,93.60
2018-07-07T00:19:33.883Z,93.60
2018-07-07T00:22:03.058Z,93.70
2018-07-07T00:24:32.001Z,93.80
2018-07-07T00:27:00.549Z,93.90
2018-07-07T00:29:29.777Z,94.00
2018-07-07T00:31:59.898Z,94.00
2018-07-07T00:34:28.929Z,94.10
2018-07-07T00:36:57.893Z,94.30
2018-07-07T00:39:27.549Z,94.40
2018-07-07T00:41:58.853Z,94.40
2018-07-07T00:44:28.823Z,94.60
2018-07-07T00:46:58.229Z,94.60
2018-07-07T00:49:27.335Z,94.70
2018-07-07T00:51:56.635Z,94.80
2018-07-07T00:54:26.027Z,94.90
2018-07-07T00:56:55.759Z,94.90
2018-07-07T00:59:25.389Z,94.90
2018-07-07T01:01:55.037Z,94.90
2018-07-07T01:04:24.076Z,94.90
2018-07-07T01:06:54.591Z,94.90
2018-07-07T01:09:24.728Z,94.90
2018-07-07T01:11:53.997Z,94.80
2018-07-07T01:14:25.633Z,94.80
2018-07-07T01:16:55.947Z,94.90
2018-07-07T01:19:27.682Z,94.90
2018-07-07T01:21:57.648Z,95.00
2018-07-07T01:24:27.270Z,95.00
2018-07-07T01:26:56.418Z,95.10
2018-07-07T01:29:25.090Z,95.10
2018-07-07T01:31:55.327Z,95.20
2018-07-07T01:34:23.753Z,95.10
2018-07-07T01:36:52.111Z,95.10
2018-07-07T01:39:20.565Z,95.10
2018-07-07T01:41:48.957Z,95.10
2018-07-07T01:44:17.463Z,95.10
2018-07-07T01:46:45.926Z,95.10
2018-07-07T01:49:15.307Z,95.10
2018-07-07T01:51:43.724Z,95.00
2018-07-07T01:54:12.165Z,95.10
2018-07-07T01:56:58.669Z,95.10
2018-07-07T01:59:27.097Z,95.10
2018-07-07T02:01:55.616Z,95.10
2018-07-07T02:04:24.026Z,95.20
2018-07-07T02:06:52.406Z,95.10
2018-07-07T02:09:20.856Z,95.00
2018-07-07T02:11:49.278Z,95.00
2018-07-07T02:14:17.724Z,95.10
2018-07-07T02:16:46.209Z,94.90
2018-07-07T02:19:14.643Z,94.90
2018-07-07T02:21:43.146Z,94.90
2018-07-07T02:24:11.549Z,94.90
2018-07-07T02:26:40.084Z,94.80
2018-07-07T02:29:08.729Z,94.80
2018-07-07T02:31:37.107Z,94.80
2018-07-07T02:34:05.762Z,94.80
2018-07-07T02:36:34.089Z,94.90
2018-07-07T02:39:02.427Z,95.00
2018-07-07T02:41:31.015Z,95.00
2018-07-07T02:43:59.391Z,95.00
2018-07-07T02:46:27.822Z,95.00
2018-07-07T02:51:24.594Z,95.10
2018-07-07T02:53:53.079Z,95.20
2018-07-07T02:56:21.496Z,95.20
2018-07-07T02:58:50.174Z,95.20
2018-07-07T03:01:18.861Z,95.30
2018-07-07T03:03:47.241Z,95.30
2018-07-07T03:06:15.646Z,95.30
2018-07-07T03:08:44.025Z,95.30
2018-07-07T03:11:12.474Z,95.20
2018-07-07T03:13:40.971Z,95.20
2018-07-07T03:16:09.368Z,95.30
2018-07-07T03:18:37.778Z,95.10
2018-07-07T03:21:06.167Z,95.10
2018-07-07T03:23:34.579Z,95.10
2018-07-07T03:26:03.056Z,95.20
2018-07-07T03:28:31.422Z,95.00
2018-07-07T03:30:59.817Z,95.10
2018-07-07T03:33:28.274Z,95.20
2018-07-07T03:35:56.624Z,95.10
2018-07-07T03:38:25.037Z,95.00
2018-07-07T03:40:53.467Z,95.00
2018-07-07T03:43:21.928Z,95.00
2018-07-07T03:45:50.305Z,94.90
2018-07-07T03:48:18.684Z,94.90
2018-07-07T03:50:47.029Z,94.80
2018-07-07T03:53:15.512Z,94.80
2018-07-07T03:55:43.994Z,94.80
2018-07-07T03:58:12.370Z,94.80
2018-07-07T04:00:40.810Z,94.70
2018-07-07T04:03:09.278Z,94.70
2018-07-07T04:05:37.745Z,94.60
2018-07-07T04:08:06.138Z,94.60
2018-07-07T04:10:34.498Z,94.60
2018-07-07T04:13:02.902Z,94.40
2018-07-07T04:15:31.769Z,94.40
2018-07-07T04:18:00.231Z,94.20
2018-07-07T04:20:28.799Z,94.20
2018-07-07T04:22:57.181Z,94.20
2018-07-07T04:25:25.612Z,94.20
2018-07-07T04:27:54.132Z,94.20
2018-07-07T04:30:22.550Z,94.40
2018-07-07T04:32:51.024Z,93.90
2018-07-07T04:35:19.814Z,93.90
2018-07-07T04:37:48.377Z,94.00
2018-07-07T04:40:16.805Z,93.90
2018-07-07T04:42:45.148Z,93.70
2018-07-07T04:45:13.967Z,93.70
2018-07-07T04:47:42.917Z,93.60
2018-07-07T04:50:11.287Z,93.60
2018-07-07T04:52:39.801Z,93.80
2018-07-07T04:55:08.186Z,93.60
2018-07-07T04:57:36.682Z,93.50
2018-07-07T05:00:05.864Z,93.40
2018-07-07T05:02:34.281Z,93.50
2018-07-07T05:05:02.710Z,93.40
2018-07-07T05:07:32.198Z,93.30
2018-07-07T05:10:00.580Z,93.40
2018-07-07T05:12:29.155Z,93.10
2018-07-07T05:14:57.516Z,93.10
2018-07-07T05:17:26.057Z,92.80
2018-07-07T05:19:54.457Z,92.80
2018-07-07T05:22:22.884Z,92.80
2018-07-07T05:24:51.308Z,92.80
2018-07-07T05:27:19.741Z,92.60
2018-07-07T05:29:48.124Z,92.50
2018-07-07T05:32:16.482Z,92.40
2018-07-07T05:34:45.010Z,92.30
2018-07-07T05:37:13.363Z,92.20
2018-07-07T05:39:41.833Z,91.90
2018-07-07T05:42:10.280Z,92.10
2018-07-07T05:44:38.661Z,91.80
2018-07-07T05:47:07.189Z,91.40
2018-07-07T05:49:36.011Z,91.30
2018-07-07T05:52:04.479Z,90.70
2018-07-07T05:54:33.205Z,90.60
2018-07-07T05:57:01.931Z,90.40
2018-07-07T05:59:30.498Z,90.40
2018-07-07T06:01:59.374Z,90.30
2018-07-07T06:04:27.886Z,90.20
2018-07-07T06:06:56.602Z,90.20
2018-07-07T06:09:25.162Z,90.20
2018-07-07T06:11:53.694Z,90.00
2018-07-07T06:14:22.200Z,89.70
2018-07-07T06:16:50.762Z,90.00
2018-07-07T06:19:19.236Z,90.00
2018-07-07T06:21:47.700Z,90.00
2018-07-07T06:24:16.166Z,89.80
2018-07-07T06:26:44.589Z,86.70
2018-07-07T06:29:13.585Z,87.10
2018-07-07T06:31:42.183Z,87.00
2018-07-07T06:34:10.568Z,87.40
2018-07-07T06:36:39.177Z,87.20
2018-07-07T06:39:07.689Z,86.20
2018-07-07T06:41:36.115Z,85.60
2018-07-07T06:44:04.622Z,84.70
2018-07-07T06:46:36.859Z,85.00
2018-07-07T06:49:05.950Z,84.70
2018-07-07T06:54:02.762Z,84.90
2018-07-07T06:56:31.446Z,83.90
2018-07-07T06:59:00.307Z,83.20
2018-07-07T07:01:28.812Z,82.50
2018-07-07T07:03:57.350Z,82.70
2018-07-07T07:06:26.138Z,82.50
2018-07-07T07:11:27.508Z,82.20
2018-07-07T07:13:56.129Z,81.90
2018-07-07T07:16:24.521Z,81.30
2018-07-07T07:18:53.113Z,80.80
2018-07-07T07:21:22.043Z,81.30
2018-07-07T07:23:50.534Z,79.00
2018-07-07T07:26:19.240Z,78.80
2018-07-07T07:28:47.991Z,78.50
2018-07-07T07:31:17.314Z,78.70
2018-07-07T07:33:46.415Z,77.00
2018-07-07T07:36:16.441Z,75.00
2018-07-07T07:38:46.171Z,75.20
2018-07-07T07:41:15.154Z,73.20
2018-07-07T07:43:43.699Z,73.20
2018-07-07T07:46:12.475Z,71.20
2018-07-07T07:48:41.548Z,71.40
2018-07-07T07:51:10.034Z,71.00
2018-07-07T07:53:38.534Z,70.50
2018-07-07T07:56:07.331Z,68.50
2018-07-07T07:58:35.827Z,68.30
2018-07-07T08:01:04.344Z,69.00
2018-07-07T08:03:32.771Z,64.00
2018-07-07T08:06:01.297Z,63.80
2018-07-07T08:08:29.988Z,64.60
2018-07-07T08:10:58.615Z,63.50
2018-07-07T08:15:55.182Z,63.00
2018-07-07T08:18:23.662Z,63.20
2018-07-07T08:20:52.226Z,63.40
2018-07-07T08:25:49.418Z,60.10
2018-07-07T08:28:18.312Z,59.60
2018-07-07T08:30:46.715Z,58.30
2018-07-07T08:33:16.348Z,58.10
2018-07-07T08:35:45.350Z,56.50
2018-07-07T08:38:15.922Z,57.30
2018-07-07T08:40:44.810Z,57.30
2018-07-07T08:43:14.911Z,56.70
2018-07-07T08:45:44.092Z,55.10
2018-07-07T08:48:12.786Z,55.20
2018-07-07T08:50:42.112Z,56.00
2018-07-07T08:53:10.573Z,55.40
2018-07-07T08:55:39.558Z,54.80
2018-07-07T08:58:08.288Z,54.20
2018-07-07T09:00:36.961Z,54.20
2018-07-07T09:03:06.957Z,54.60
2018-07-07T09:05:35.717Z,55.10
2018-07-07T09:08:04.782Z,54.40
2018-07-07T09:10:33.791Z,55.40
2018-07-07T09:13:02.387Z,55.00
2018-07-07T09:15:31.070Z,55.10
2018-07-07T09:17:59.880Z,55.00
2018-07-07T09:20:29.642Z,58.00
2018-07-07T09:22:58.542Z,55.40
2018-07-07T09:25:27.376Z,55.30
2018-07-07T09:27:56.174Z,55.60
2018-07-07T09:30:27.620Z,53.80
2018-07-07T09:32:56.586Z,53.20
2018-07-07T09:35:25.407Z,53.40
2018-07-07T09:37:54.362Z,51.50
2018-07-07T09:40:25.282Z,50.60
2018-07-07T09:42:54.096Z,50.70
2018-07-07T09:45:22.734Z,51.50
2018-07-07T09:47:51.522Z,50.50
2018-07-07T09:50:20.550Z,51.30
2018-07-07T09:52:50.679Z,51.30
2018-07-07T09:55:19.906Z,52.40
2018-07-07T09:57:49.060Z,53.30
2018-07-07T10:00:22.290Z,52.50
2018-07-07T10:02:50.930Z,52.40
2018-07-07T10:05:19.761Z,52.70
2018-07-07T10:07:48.654Z,52.90
2018-07-07T10:10:17.858Z,52.80
2018-07-07T10:12:46.315Z,52.00
2018-07-07T10:15:14.833Z,52.30
2018-07-07T10:17:43.551Z,51.20
2018-07-07T10:20:14.705Z,50.60
2018-07-07T10:22:44.313Z,49.80
2018-07-07T10:25:12.788Z,49.50
2018-07-07T10:27:42.035Z,48.50
2018-07-07T10:30:10.558Z,47.30
2018-07-07T10:32:39.918Z,48.50
2018-07-07T10:35:08.374Z,47.70
2018-07-07T10:37:39.012Z,48.30
2018-07-07T10:40:07.478Z,48.10
2018-07-07T10:42:35.927Z,48.20
2018-07-07T10:45:06.347Z,48.80
2018-07-07T10:47:34.885Z,48.70
2018-07-07T10:50:06.062Z,48.70
2018-07-07T10:52:34.725Z,48.00
2018-07-07T10:55:04.853Z,48.00
2018-07-07T10:57:33.709Z,46.80
2018-07-07T11:00:02.937Z,46.80
2018-07-07T11:02:32.014Z,46.40
2018-07-07T11:05:00.934Z,48.20
2018-07-07T11:07:30.931Z,50.30
2018-07-07T11:10:00.963Z,49.20
2018-07-07T11:12:30.611Z,49.20
2018-07-07T11:14:59.861Z,49.10
2018-07-07T11:17:34.782Z,48.60
2018-07-07T11:20:04.527Z,47.50
2018-07-07T11:22:35.057Z,48.20
2018-07-07T11:25:04.626Z,48.00
2018-07-07T11:27:36.849Z,47.80
2018-07-07T11:30:06.007Z,47.30
2018-07-07T11:32:35.285Z,47.60
2018-07-07T11:35:03.914Z,47.90
2018-07-07T11:37:32.905Z,48.10
2018-07-07T11:40:01.453Z,45.90
2018-07-07T11:42:30.014Z,44.70
2018-07-07T11:44:58.636Z,43.60
2018-07-07T11:47:29.321Z,43.70
2018-07-07T11:50:06.283Z,43.10
2018-07-07T11:52:38.065Z,43.80
2018-07-07T11:55:06.649Z,43.50
2018-07-07T11:57:40.059Z,44.90
2018-07-07T12:00:09.840Z,44.90
2018-07-07T12:02:38.600Z,45.30
2018-07-07T12:05:07.357Z,42.90
2018-07-07T12:07:35.830Z,42.50
2018-07-07T12:10:04.654Z,42.90
2018-07-07T12:12:34.730Z,42.90
2018-07-07T12:15:03.366Z,42.40
2018-07-07T12:17:32.422Z,44.10
2018-07-07T12:20:01.104Z,44.60
2018-07-07T12:22:29.581Z,43.90
2018-07-07T12:24:58.249Z,41.40
2018-07-07T12:27:26.773Z,41.50
2018-07-07T12:29:55.625Z,42.80
2018-07-07T12:32:24.289Z,43.30
2018-07-07T12:34:52.698Z,43.80
2018-07-07T12:37:21.253Z,44.50
2018-07-07T12:39:49.788Z,45.20
2018-07-07T12:42:18.453Z,44.40
2018-07-07T12:44:47.291Z,43.40
2018-07-07T12:47:15.894Z,43.20
2018-07-07T12:49:44.406Z,42.90
2018-07-07T12:52:12.804Z,42.10
2018-07-07T12:54:41.406Z,41.60
2018-07-07T12:57:09.803Z,41.50
2018-07-07T12:59:38.338Z,41.90
2018-07-07T13:02:07.159Z,42.90
2018-07-07T13:04:35.679Z,43.10
2018-07-07T13:07:04.268Z,44.10
2018-07-07T13:09:33.554Z,45.30
2018-07-07T13:12:02.155Z,45.20
2018-07-07T13:14:30.646Z,45.20
2018-07-07T13:16:59.708Z,41.50
2018-07-07T13:19:28.655Z,41.30
2018-07-07T13:21:57.143Z,40.70
2018-07-07T13:24:25.550Z,39.40
2018-07-07T13:26:54.037Z,39.60
2018-07-07T13:29:22.945Z,39.70
2018-07-07T13:31:51.803Z,40.30
2018-07-07T13:34:20.527Z,40.00
2018-07-07T13:36:49.297Z,40.90
2018-07-07T13:39:17.769Z,40.20
2018-07-07T13:41:47.843Z,39.90
2018-07-07T13:44:16.281Z,41.00
2018-07-07T13:46:44.913Z,42.20
2018-07-07T13:49:13.518Z,41.10
2018-07-07T13:51:42.294Z,41.40
2018-07-07T13:54:10.900Z,40.60
2018-07-07T13:56:39.564Z,39.80
2018-07-07T13:59:09.414Z,39.50
2018-07-07T14:01:37.930Z,38.90
2018-07-07T14:04:06.997Z,38.80
2018-07-07T14:06:40.441Z,39.00
2018-07-07T14:09:09.862Z,39.60
2018-07-07T14:11:44.155Z,39.60
2018-07-07T14:14:13.506Z,39.60
2018-07-07T14:16:42.102Z,39.20
2018-07-07T14:19:12.317Z,38.00
2018-07-07T14:24:10.915Z,37.10
2018-07-07T14:29:27.560Z,36.20
2018-07-07T14:31:58.216Z,36.30
2018-07-07T14:34:27.528Z,35.20
2018-07-07T14:36:56.484Z,36.40
2018-07-07T14:39:28.150Z,37.80
2018-07-07T14:42:08.116Z,39.30
2018-07-07T14:44:38.228Z,39.40
2018-07-07T14:47:07.054Z,38.50
2018-07-07T14:49:36.326Z,36.70
2018-07-07T14:52:07.152Z,37.20
2018-07-07T14:54:37.464Z,37.30
2018-07-07T14:57:06.942Z,38.10
2018-07-07T14:59:35.650Z,39.80
2018-07-07T15:02:04.939Z,39.60
2018-07-07T15:04:34.793Z,39.90
2018-07-07T15:07:03.614Z,39.40
2018-07-07T15:09:38.838Z,39.00
2018-07-07T15:12:17.188Z,38.50
2018-07-07T15:15:01.788Z,38.60
2018-07-07T15:17:30.696Z,37.40
2018-07-07T15:20:01.412Z,37.00
2018-07-07T15:42:04.888Z,38.10
2018-07-07T15:44:33.374Z,38.70
2018-07-07T15:47:02.096Z,39.30
2018-07-07T15:49:31.622Z,39.40
2018-07-07T15:52:00.175Z,39.20
2018-07-07T15:54:28.712Z,39.90
2018-07-07T15:56:57.176Z,39.60
2018-07-07T15:59:25.585Z,39.30
2018-07-07T16:01:54.288Z,39.00
2018-07-07T16:04:22.722Z,39.30
2018-07-07T16:06:51.280Z,38.80
2018-07-07T16:09:19.807Z,39.60
2018-07-07T16:11:48.687Z,39.80
2018-07-07T16:14:17.109Z,39.60
2018-07-07T16:16:45.937Z,40.00
2018-07-07T16:19:14.784Z,40.20
2018-07-07T16:21:43.289Z,39.30
2018-07-07T16:24:12.123Z,39.50
2018-07-07T16:26:40.675Z,39.60
2018-07-07T16:29:09.428Z,39.00
2018-07-07T16:31:37.863Z,39.30
2018-07-07T16:34:06.639Z,38.60
2018-07-07T16:36:35.120Z,37.70
2018-07-07T16:39:03.753Z,38.20
2018-07-07T16:41:32.392Z,37.40
2018-07-07T16:44:00.940Z,36.80
2018-07-07T16:46:29.608Z,36.80
2018-07-07T16:48:58.197Z,35.90
2018-07-07T16:51:26.747Z,35.90
2018-07-07T16:53:55.655Z,35.40
2018-07-07T16:56:24.661Z,34.00
2018-07-07T16:58:53.160Z,34.90
2018-07-07T17:01:21.666Z,35.30
2018-07-07T17:04:01.332Z,36.20
2018-07-07T17:06:32.252Z,36.80
2018-07-07T17:09:00.916Z,37.40
2018-07-07T17:11:29.686Z,38.10
2018-07-07T17:13:59.124Z,37.80
2018-07-07T17:16:28.016Z,38.00
2018-07-07T17:19:00.062Z,38.50
2018-07-07T17:21:28.948Z,38.50
2018-07-07T17:23:57.612Z,39.00
2018-07-07T17:26:26.564Z,38.20
2018-07-07T17:28:56.461Z,38.10
2018-07-07T17:31:25.138Z,37.80
2018-07-07T17:33:53.997Z,38.10
2018-07-07T17:36:25.468Z,36.60
2018-07-07T17:38:53.851Z,36.70
2018-07-07T17:41:23.012Z,36.60
2018-07-07T17:43:51.602Z,37.30
2018-07-07T17:46:20.494Z,38.10
2018-07-07T17:48:49.013Z,38.10
2018-07-07T17:51:17.876Z,38.10
2018-07-07T17:53:46.360Z,38.10
2018-07-07T17:56:17.506Z,37.40
2018-07-07T17:58:46.837Z,36.90
2018-07-07T18:01:16.073Z,37.20
2018-07-07T18:03:44.981Z,37.50
2018-07-07T18:06:13.435Z,37.80
2018-07-07T18:08:43.459Z,37.60
2018-07-07T18:11:12.859Z,37.80
2018-07-07T18:13:41.675Z,37.70
2018-07-07T18:16:10.185Z,37.90
2018-07-07T18:18:43.636Z,38.60
2018-07-07T18:21:13.708Z,38.50
2018-07-07T18:23:46.130Z,38.60
2018-07-07T18:26:15.443Z,38.90
2018-07-07T18:28:44.730Z,39.20
2018-07-07T18:31:17.286Z,39.80
2018-07-07T18:33:50.443Z,40.80
2018-07-07T18:36:20.203Z,41.70
2018-07-07T18:38:49.507Z,42.20
2018-07-07T18:41:18.122Z,42.70
2018-07-07T18:43:48.489Z,43.00
2018-07-07T18:46:17.316Z,43.30
2018-07-07T18:48:45.990Z,44.10
2018-07-07T18:51:15.719Z,44.90
2018-07-07T18:53:46.069Z,44.50
2018-07-07T18:56:15.523Z,44.80
2018-07-07T18:58:49.799Z,45.20
2018-07-07T19:01:18.583Z,45.80
2018-07-07T19:03:48.329Z,46.70
2018-07-07T19:06:17.139Z,46.20
2018-07-07T19:08:46.469Z,46.40
2018-07-07T19:11:15.993Z,47.60
2018-07-07T19:13:50.621Z,48.10
2018-07-07T19:16:19.293Z,48.90
2018-07-07T19:18:48.435Z,48.70
2018-07-07T19:21:22.510Z,49.50
2018-07-07T19:23:56.723Z,49.00
2018-07-07T19:26:30.633Z,49.20
2018-07-07T19:28:59.586Z,49.70
2018-07-07T19:31:28.103Z,49.30
2018-07-07T19:34:02.038Z,50.10
2018-07-07T19:36:36.068Z,49.90
2018-07-07T19:39:05.804Z,51.30
2018-07-07T19:41:34.644Z,52.60
2018-07-07T19:44:03.520Z,51.70
2018-07-07T19:46:32.270Z,52.90
2018-07-07T19:49:02.060Z,52.50
2018-07-07T19:51:30.869Z,53.40
2018-07-07T19:53:59.745Z,53.20
2018-07-07T19:56:28.793Z,54.00
2018-07-07T19:58:57.731Z,54.40
2018-07-07T20:01:27.334Z,54.60
2018-07-07T20:03:56.157Z,54.30
2018-07-07T20:06:25.047Z,54.00
2018-07-07T20:08:54.844Z,55.30
2018-07-07T20:11:23.529Z,55.90
2018-07-07T20:13:52.030Z,56.20
2018-07-07T20:17:29.412Z,56.70
2018-07-07T20:20:34.525Z,56.70
2018-07-07T20:23:05.816Z,56.50
2018-07-07T20:25:34.592Z,57.50
2018-07-07T20:28:09.628Z,57.40
2018-07-07T20:30:39.226Z,57.70
2018-07-07T20:33:08.674Z,57.90
2018-07-07T20:35:37.309Z,57.50
2018-07-07T20:38:05.884Z,58.10
2018-07-07T20:40:34.672Z,58.40
2018-07-07T20:43:04.372Z,58.80
2018-07-07T20:45:32.897Z,58.90
2018-07-07T20:48:01.665Z,58.80
2018-07-07T20:50:30.478Z,58.70
2018-07-07T20:52:59.210Z,59.30
2018-07-07T20:55:28.524Z,59.30
2018-07-07T20:57:57.386Z,58.70
2018-07-07T21:00:25.858Z,58.30
2018-07-07T21:02:54.393Z,58.70
2018-07-07T21:05:22.988Z,58.40
2018-07-07T21:07:51.374Z,58.70
2018-07-07T21:10:21.065Z,59.30
2018-07-07T21:12:49.660Z,61.10
2018-07-07T21:15:20.515Z,60.30
2018-07-07T21:17:49.199Z,59.80
2018-07-07T21:20:17.833Z,60.40
2018-07-07T21:22:46.910Z,60.70
2018-07-07T21:25:16.059Z,60.60
2018-07-07T21:27:46.040Z,60.60
2018-07-07T21:30:15.213Z,60.30
2018-07-07T21:32:43.842Z,61.00
2018-07-07T21:35:12.515Z,60.60
2018-07-07T21:37:41.319Z,60.60
2018-07-07T21:40:10.090Z,61.00
2018-07-07T21:42:39.932Z,61.00
2018-07-07T21:45:10.981Z,61.10
2018-07-07T21:47:42.178Z,61.00
2018-07-07T21:50:10.766Z,61.70
2018-07-07T21:52:40.146Z,61.50
2018-07-07T21:55:08.780Z,62.20
2018-07-07T21:57:43.720Z,61.50
2018-07-07T22:00:19.527Z,61.30
2018-07-07T22:02:55.459Z,61.90
2018-07-07T22:05:31.087Z,62.30
2018-07-07T22:08:06.053Z,62.00
2018-07-07T22:10:34.733Z,61.80
2018-07-07T22:13:03.245Z,62.30
2018-07-07T22:15:32.089Z,62.50
2018-07-07T22:18:00.747Z,62.00
2018-07-07T22:20:32.577Z,62.00
2018-07-07T22:23:01.085Z,62.60
2018-07-07T22:25:29.497Z,63.30
2018-07-07T22:27:57.989Z,62.80
2018-07-07T22:30:27.624Z,62.70
2018-07-07T22:33:01.577Z,62.90
2018-07-07T22:35:35.446Z,63.20
2018-07-07T22:38:08.080Z,63.90
2018-07-07T22:40:37.530Z,63.50
2018-07-07T22:43:06.240Z,63.50
2018-07-07T22:45:38.377Z,63.60
2018-07-07T22:48:08.779Z,63.60
2018-07-07T22:50:39.116Z,63.60
2018-07-07T22:53:09.785Z,63.90
2018-07-07T22:55:38.371Z,63.80
2018-07-07T22:58:06.913Z,64.00
2018-07-07T23:00:36.688Z,64.10
2018-07-07T23:03:05.220Z,64.10
2018-07-07T23:05:33.716Z,64.10
2018-07-07T23:08:02.874Z,64.30
2018-07-07T23:10:34.469Z,65.30
2018-07-07T23:13:03.134Z,64.80
2018-07-07T23:15:31.695Z,65.00
2018-07-07T23:18:00.416Z,65.20
2018-07-07T23:20:29.511Z,65.30
2018-07-07T23:22:58.396Z,65.40
2018-07-07T23:25:27.314Z,65.60
2018-07-07T23:27:55.854Z,66.00
2018-07-07T23:30:24.565Z,66.10
2018-07-07T23:32:53.478Z,66.50
2018-07-07T23:35:22.147Z,66.90
2018-07-07T23:37:50.901Z,67.10
2018-07-07T23:42:48.615Z,67.00
2018-07-07T23:45:17.342Z,67.20
2018-07-07T23:47:45.935Z,67.50
2018-07-07T23:50:14.666Z,67.70
2018-07-07T23:52:43.113Z,67.70
2018-07-07T23:55:11.563Z,68.40
2018-07-07T23:57:39.912Z,68.70
